createdAt,value
2018-05-03T00:00:12.915Z,97.10
2018-05-03T00:02:40.706Z,97.20
2018-05-03T00:05:08.253Z,97.20
2018-05-03T00:07:35.801Z,97.10
2018-05-03T00:10:03.269Z,97.00
2018-05-03T00:12:30.759Z,97.40
2018-05-03T00:14:58.430Z,97.20
2018-05-03T00:17:25.970Z,97.50
2018-05-03T00:19:53.560Z,97.60
2018-05-03T00:22:21.030Z,97.80
2018-05-03T00:24:48.501Z,97.80
2018-05-03T00:27:15.966Z,97.80
2018-05-03T00:29:43.414Z,97.80
2018-05-03T00:32:10.889Z,97.80
2018-05-03T00:34:38.350Z,97.80
2018-05-03T00:37:05.834Z,97.70
2018-05-03T00:39:33.296Z,97.80
2018-05-03T00:42:01.531Z,98.00
2018-05-03T00:44:29.005Z,98.00
2018-05-03T00:46:56.464Z,98.00
2018-05-03T00:49:23.928Z,98.00
2018-05-03T00:51:51.390Z,98.00
2018-05-03T00:54:43.229Z,98.00
2018-05-03T00:57:11.441Z,98.40
2018-05-03T00:59:38.910Z,98.30
2018-05-03T01:02:06.379Z,98.30
2018-05-03T01:04:33.839Z,98.20
2018-05-03T01:07:01.311Z,98.30
2018-05-03T01:09:28.782Z,98.40
2018-05-03T01:11:56.253Z,98.50
2018-05-03T01:14:24.495Z,98.60
2018-05-03T01:16:51.959Z,98.50
2018-05-03T01:19:19.424Z,98.40
2018-05-03T01:21:46.887Z,98.40
2018-05-03T01:24:14.353Z,98.70
2018-05-03T01:26:42.589Z,98.70
2018-05-03T01:29:10.044Z,98.80
2018-05-03T01:31:37.508Z,98.80
2018-05-03T01:34:05.015Z,98.90
2018-05-03T01:36:32.463Z,98.80
2018-05-03T01:38:59.947Z,99.00
2018-05-03T01:41:27.418Z,98.90
2018-05-03T01:43:54.889Z,99.00
2018-05-03T01:46:22.344Z,98.90
2018-05-03T01:48:49.819Z,99.20
2018-05-03T01:51:17.317Z,99.10
2018-05-03T01:53:44.793Z,99.00
2018-05-03T01:56:12.276Z,98.90
2018-05-03T01:58:39.735Z,98.80
2018-05-03T02:01:07.203Z,98.80
2018-05-03T02:03:34.699Z,98.80
2018-05-03T02:06:02.170Z,98.80
2018-05-03T02:08:29.642Z,98.90
2018-05-03T02:10:57.845Z,99.10
2018-05-03T02:13:25.313Z,99.00
2018-05-03T02:15:52.803Z,99.10
2018-05-03T02:18:20.246Z,99.20
2018-05-03T02:20:48.481Z,99.20
2018-05-03T02:23:15.952Z,99.20
2018-05-03T02:25:43.410Z,99.10
2018-05-03T02:28:10.885Z,99.20
2018-05-03T02:30:39.111Z,99.50
2018-05-03T02:33:06.576Z,99.40
2018-05-03T02:35:34.038Z,99.60
2018-05-03T02:38:01.505Z,99.80
2018-05-03T02:40:28.983Z,99.70
2018-05-03T02:42:56.441Z,99.60
2018-05-03T02:45:24.683Z,99.80
2018-05-03T02:47:52.144Z,99.90
2018-05-03T02:50:19.613Z,99.80
2018-05-03T02:52:47.090Z,99.80
2018-05-03T02:55:15.326Z,99.90
2018-05-03T02:58:00.317Z,99.90
2018-05-03T03:00:45.143Z,99.90
2018-05-03T03:03:30.290Z,99.90
2018-05-03T03:06:09.704Z,99.90
2018-05-03T03:09:07.546Z,99.90
2018-05-03T03:11:52.502Z,99.90
2018-05-03T03:14:37.587Z,99.90
2018-05-03T03:17:22.648Z,99.90
2018-05-03T03:33:44.023Z,99.90
2018-05-03T03:36:23.379Z,99.90
2018-05-03T03:39:02.665Z,99.90
2018-05-03T03:41:39.938Z,99.90
2018-05-03T03:44:19.108Z,99.90
2018-05-03T03:46:46.572Z,99.90
2018-05-03T03:49:14.036Z,99.90
2018-05-03T03:51:41.501Z,99.90
2018-05-03T03:54:08.963Z,99.90
2018-05-03T03:56:36.449Z,99.90
2018-05-03T03:59:03.935Z,99.90
2018-05-03T04:01:32.176Z,99.90
2018-05-03T04:03:59.630Z,99.90
2018-05-03T04:06:27.098Z,99.90
2018-05-03T04:08:54.592Z,99.90
2018-05-03T04:11:22.063Z,99.90
2018-05-03T04:13:49.550Z,99.90
2018-05-03T04:16:17.001Z,99.90
2018-05-03T04:18:56.208Z,99.90
2018-05-03T04:21:35.551Z,99.90
2018-05-03T04:24:14.766Z,99.90
2018-05-03T04:26:42.249Z,99.90
2018-05-03T04:29:09.718Z,99.90
2018-05-03T04:31:37.201Z,99.90
2018-05-03T04:34:04.663Z,99.90
2018-05-03T04:36:32.137Z,99.90
2018-05-03T04:39:00.409Z,99.90
2018-05-03T04:41:28.670Z,99.90
2018-05-03T04:43:56.144Z,99.90
2018-05-03T04:46:24.498Z,99.90
2018-05-03T04:48:51.950Z,99.90
2018-05-03T04:51:19.430Z,99.90
2018-05-03T04:53:47.654Z,99.90
2018-05-03T04:56:15.125Z,99.90
2018-05-03T04:58:42.589Z,99.90
2018-05-03T05:01:10.064Z,99.90
2018-05-03T05:03:37.545Z,99.90
2018-05-03T05:06:05.074Z,99.90
2018-05-03T05:08:32.501Z,99.90
2018-05-03T05:10:59.976Z,99.90
2018-05-03T05:13:27.432Z,99.90
2018-05-03T05:15:54.922Z,99.90
2018-05-03T05:18:22.449Z,99.80
2018-05-03T05:20:49.865Z,99.60
2018-05-03T05:23:17.318Z,99.10
2018-05-03T05:25:44.787Z,98.80
2018-05-03T05:28:12.271Z,98.80
2018-05-03T05:30:39.773Z,98.60
2018-05-03T05:33:07.257Z,98.70
2018-05-03T05:35:34.716Z,98.50
2018-05-03T05:38:02.171Z,98.80
2018-05-03T05:40:29.641Z,98.80
2018-05-03T05:42:57.093Z,98.80
2018-05-03T05:45:24.577Z,99.00
2018-05-03T05:47:52.054Z,98.60
2018-05-03T05:50:19.522Z,98.40
2018-05-03T05:52:47.790Z,98.10
2018-05-03T05:55:15.241Z,98.10
2018-05-03T05:57:42.739Z,98.10
2018-05-03T06:00:10.209Z,98.00
2018-05-03T06:02:37.778Z,97.70
2018-05-03T06:05:05.204Z,97.90
2018-05-03T06:07:32.707Z,97.80
2018-05-03T06:10:00.235Z,97.90
2018-05-03T06:12:27.730Z,98.00
2018-05-03T06:14:55.218Z,98.20
2018-05-03T06:17:23.493Z,98.80
2018-05-03T06:19:51.712Z,98.00
2018-05-03T06:22:19.192Z,98.00
2018-05-03T06:24:46.689Z,97.70
2018-05-03T06:27:14.992Z,98.00
2018-05-03T06:29:42.492Z,98.00
2018-05-03T06:32:09.967Z,98.00
2018-05-03T06:34:37.450Z,98.00
2018-05-03T06:37:04.953Z,98.80
2018-05-03T06:39:32.430Z,99.50
2018-05-03T06:41:59.955Z,99.90
2018-05-03T06:44:27.450Z,99.90
2018-05-03T06:46:54.918Z,99.90
2018-05-03T06:49:22.428Z,99.90
2018-05-03T06:51:49.911Z,99.90
2018-05-03T06:54:17.407Z,99.90
2018-05-03T06:56:45.657Z,99.90
2018-05-03T06:59:13.136Z,99.90
2018-05-03T07:01:40.662Z,99.90
2018-05-03T07:04:08.171Z,99.90
2018-05-03T07:06:35.630Z,99.90
2018-05-03T07:09:03.132Z,99.90
2018-05-03T07:11:30.637Z,99.90
2018-05-03T07:13:58.132Z,99.90
2018-05-03T07:16:25.762Z,99.90
2018-05-03T07:18:53.878Z,99.90
2018-05-03T07:21:21.362Z,99.90
2018-05-03T07:23:49.613Z,99.90
2018-05-03T07:26:17.081Z,99.90
2018-05-03T07:28:44.594Z,99.90
2018-05-03T07:31:12.078Z,99.90
2018-05-03T07:33:39.548Z,99.90
2018-05-03T07:36:07.023Z,99.90
2018-05-03T07:38:34.554Z,99.90
2018-05-03T07:41:02.030Z,99.90
2018-05-03T07:43:29.512Z,99.90
2018-05-03T07:45:57.039Z,99.90
2018-05-03T07:48:24.541Z,99.50
2018-05-03T07:50:52.073Z,99.50
2018-05-03T07:53:19.554Z,98.40
2018-05-03T07:55:47.031Z,98.30
2018-05-03T07:58:14.539Z,97.70
2018-05-03T08:00:41.967Z,97.50
2018-05-03T08:03:09.447Z,97.00
2018-05-03T08:05:36.931Z,96.80
2018-05-03T08:08:05.167Z,95.40
2018-05-03T08:10:32.670Z,95.40
2018-05-03T08:13:00.154Z,95.50
2018-05-03T08:15:27.621Z,94.70
2018-05-03T08:17:55.118Z,92.80
2018-05-03T08:20:22.615Z,92.10
2018-05-03T08:22:50.102Z,88.20
2018-05-03T08:25:17.646Z,90.40
2018-05-03T08:27:45.115Z,90.40
2018-05-03T08:30:12.594Z,87.20
2018-05-03T08:32:40.091Z,87.60
2018-05-03T08:35:07.612Z,88.10
2018-05-03T08:37:35.921Z,86.50
2018-05-03T08:40:03.417Z,87.20
2018-05-03T08:42:30.895Z,88.30
2018-05-03T08:44:58.346Z,85.60
2018-05-03T08:47:26.025Z,84.90
2018-05-03T08:49:53.499Z,85.40
2018-05-03T08:52:22.641Z,88.00
2018-05-03T08:54:50.118Z,90.00
2018-05-03T08:57:17.589Z,88.90
2018-05-03T08:59:45.067Z,87.10
2018-05-03T09:02:13.325Z,85.90
2018-05-03T09:04:41.593Z,88.00
2018-05-03T09:07:09.079Z,87.90
2018-05-03T09:09:36.570Z,88.00
2018-05-03T09:12:04.156Z,85.90
2018-05-03T09:14:31.684Z,85.30
2018-05-03T09:16:59.169Z,87.30
2018-05-03T09:19:26.671Z,88.00
2018-05-03T09:21:54.124Z,86.10
2018-05-03T09:24:22.397Z,85.50
2018-05-03T09:26:50.742Z,86.50
2018-05-03T09:29:18.244Z,86.40
2018-05-03T09:31:45.761Z,87.20
2018-05-03T09:34:13.237Z,86.50
2018-05-03T09:36:40.700Z,85.90
2018-05-03T09:39:08.294Z,83.90
2018-05-03T09:41:35.657Z,86.20
2018-05-03T09:44:03.141Z,84.20
2018-05-03T09:46:30.628Z,81.70
2018-05-03T09:48:58.097Z,82.30
2018-05-03T09:51:26.341Z,85.00
2018-05-03T09:53:53.825Z,84.10
2018-05-03T09:56:21.293Z,84.70
2018-05-03T09:58:48.790Z,80.10
2018-05-03T10:01:16.292Z,80.00
2018-05-03T10:03:43.765Z,79.60
2018-05-03T10:06:11.990Z,82.60
2018-05-03T10:08:39.483Z,82.40
2018-05-03T10:11:06.945Z,82.60
2018-05-03T10:13:34.418Z,83.50
2018-05-03T10:16:01.908Z,81.80
2018-05-03T10:18:29.402Z,81.60
2018-05-03T10:20:56.877Z,79.50
2018-05-03T10:23:25.129Z,76.90
2018-05-03T10:25:52.603Z,76.10
2018-05-03T10:28:20.848Z,76.30
2018-05-03T10:30:48.355Z,76.30
2018-05-03T10:33:15.806Z,77.70
2018-05-03T10:35:43.386Z,77.30
2018-05-03T10:38:10.813Z,76.80
2018-05-03T10:40:38.313Z,77.50
2018-05-03T10:43:05.790Z,77.00
2018-05-03T10:45:33.273Z,75.70
2018-05-03T10:48:00.764Z,73.70
2018-05-03T10:50:28.232Z,74.80
2018-05-03T10:52:55.709Z,76.00
2018-05-03T10:55:23.180Z,73.00
2018-05-03T10:57:50.661Z,74.10
2018-05-03T11:00:18.148Z,72.40
2018-05-03T11:02:45.631Z,75.10
2018-05-03T11:05:13.127Z,75.80
2018-05-03T11:07:40.625Z,75.50
2018-05-03T11:10:08.115Z,77.70
2018-05-03T11:12:35.601Z,80.20
2018-05-03T11:15:03.085Z,75.10
2018-05-03T11:17:30.540Z,72.80
2018-05-03T11:19:58.024Z,73.60
2018-05-03T11:22:25.523Z,73.70
2018-05-03T11:24:52.995Z,73.60
2018-05-03T11:27:20.814Z,71.70
2018-05-03T11:29:48.299Z,71.80
2018-05-03T11:32:15.801Z,75.90
2018-05-03T11:34:44.031Z,71.50
2018-05-03T11:37:11.531Z,71.40
2018-05-03T11:39:39.788Z,70.00
2018-05-03T11:42:07.250Z,69.80
2018-05-03T11:44:35.510Z,68.40
2018-05-03T11:47:02.957Z,68.00
2018-05-03T11:49:30.438Z,68.70
2018-05-03T11:51:57.921Z,68.10
2018-05-03T11:54:25.386Z,69.20
2018-05-03T11:56:52.863Z,69.00
2018-05-03T11:59:20.400Z,70.30
2018-05-03T12:01:48.612Z,69.90
2018-05-03T12:04:16.518Z,69.70
2018-05-03T12:06:44.002Z,68.30
2018-05-03T12:09:11.486Z,69.30
2018-05-03T12:11:39.018Z,69.00
2018-05-03T12:14:07.727Z,65.00
2018-05-03T12:16:35.227Z,65.00
2018-05-03T12:19:02.698Z,67.80
2018-05-03T12:21:30.220Z,68.10
2018-05-03T12:23:57.681Z,67.40
2018-05-03T12:26:25.162Z,66.50
2018-05-03T12:28:53.427Z,65.50
2018-05-03T12:31:20.917Z,65.60
2018-05-03T12:33:48.385Z,66.20
2018-05-03T12:36:15.868Z,67.10
2018-05-03T12:38:43.343Z,64.20
2018-05-03T12:41:10.825Z,66.60
2018-05-03T12:43:38.321Z,66.00
2018-05-03T12:46:05.791Z,63.90
2018-05-03T12:48:33.947Z,62.20
2018-05-03T12:51:01.447Z,61.70
2018-05-03T12:53:28.930Z,61.50
2018-05-03T12:55:56.433Z,62.10
2018-05-03T12:58:23.942Z,62.70
2018-05-03T13:00:52.330Z,59.80
2018-05-03T13:03:19.701Z,59.70
2018-05-03T13:05:47.207Z,62.00
2018-05-03T13:08:15.073Z,61.20
2018-05-03T13:10:42.556Z,60.20
2018-05-03T13:13:10.811Z,60.90
2018-05-03T13:15:38.282Z,60.70
2018-05-03T13:18:05.747Z,59.60
2018-05-03T13:20:33.304Z,59.50
2018-05-03T13:23:03.018Z,56.70
2018-05-03T13:25:30.553Z,56.60
2018-05-03T13:27:58.085Z,57.40
2018-05-03T13:30:25.502Z,57.20
2018-05-03T13:32:53.759Z,55.50
2018-05-03T13:35:21.256Z,55.60
2018-05-03T13:37:48.766Z,54.10
2018-05-03T13:40:16.291Z,56.20
2018-05-03T13:42:44.473Z,56.80
2018-05-03T13:45:11.973Z,56.70
2018-05-03T13:47:40.269Z,54.90
2018-05-03T13:50:08.492Z,54.20
2018-05-03T13:52:35.982Z,54.10
2018-05-03T13:55:03.486Z,54.00
2018-05-03T13:57:30.971Z,54.40
2018-05-03T13:59:58.437Z,53.40
2018-05-03T14:02:25.934Z,52.80
2018-05-03T14:04:53.421Z,52.70
2018-05-03T14:07:20.969Z,52.80
2018-05-03T14:09:49.223Z,50.60
2018-05-03T14:12:16.682Z,50.60
2018-05-03T14:14:44.161Z,49.50
2018-05-03T14:17:11.641Z,51.50
2018-05-03T14:19:39.114Z,49.60
2018-05-03T14:22:06.595Z,51.70
2018-05-03T14:24:34.067Z,52.10
2018-05-03T14:27:01.550Z,50.90
2018-05-03T14:29:29.031Z,49.80
2018-05-03T14:31:56.524Z,51.20
2018-05-03T14:34:24.827Z,51.80
2018-05-03T14:36:52.314Z,51.80
2018-05-03T14:39:19.804Z,51.80
2018-05-03T14:41:47.269Z,51.40
2018-05-03T14:44:15.543Z,51.60
2018-05-03T14:46:43.799Z,48.70
2018-05-03T14:49:11.285Z,48.70
2018-05-03T14:51:38.798Z,49.60
2018-05-03T14:54:06.289Z,49.80
2018-05-03T14:56:33.731Z,50.20
2018-05-03T14:59:01.221Z,50.00
2018-05-03T15:01:28.715Z,49.90
2018-05-03T15:03:56.220Z,48.10
2018-05-03T15:06:24.466Z,49.30
2018-05-03T15:08:51.966Z,49.30
2018-05-03T15:11:19.452Z,49.30
2018-05-03T15:13:48.581Z,49.00
2018-05-03T15:16:16.186Z,49.10
2018-05-03T15:18:43.597Z,50.20
2018-05-03T15:21:11.101Z,49.10
2018-05-03T15:23:38.612Z,45.80
2018-05-03T15:26:06.086Z,48.20
2018-05-03T15:28:33.596Z,48.00
2018-05-03T15:31:01.069Z,49.00
2018-05-03T15:33:28.545Z,49.60
2018-05-03T15:35:56.018Z,49.80
2018-05-03T15:38:23.479Z,49.90
2018-05-03T15:40:51.757Z,48.70
2018-05-03T15:43:19.993Z,48.10
2018-05-03T15:45:47.483Z,48.10
2018-05-03T15:48:15.739Z,49.60
2018-05-03T15:50:43.209Z,49.50
2018-05-03T15:53:10.697Z,50.50
2018-05-03T15:55:38.209Z,50.50
2018-05-03T15:58:05.697Z,50.30
2018-05-03T16:00:33.974Z,50.40
2018-05-03T16:03:02.229Z,50.80
2018-05-03T16:05:29.749Z,50.60
2018-05-03T16:07:57.238Z,50.80
2018-05-03T16:10:24.780Z,49.80
2018-05-03T16:12:53.706Z,49.50
2018-05-03T16:15:21.184Z,49.50
2018-05-03T16:17:48.671Z,50.10
2018-05-03T16:20:16.147Z,50.90
2018-05-03T16:22:43.644Z,51.60
2018-05-03T16:25:11.228Z,52.30
2018-05-03T16:27:38.701Z,51.60
2018-05-03T16:30:06.218Z,51.70
2018-05-03T16:32:34.469Z,52.40
2018-05-03T16:35:02.302Z,52.30
2018-05-03T16:37:29.785Z,51.40
2018-05-03T16:39:57.237Z,50.80
2018-05-03T16:42:24.721Z,50.80
2018-05-03T16:44:52.199Z,51.10
2018-05-03T16:47:19.673Z,49.70
2018-05-03T16:49:47.213Z,50.40
2018-05-03T16:52:15.487Z,52.20
2018-05-03T16:54:44.044Z,52.10
2018-05-03T16:57:11.538Z,51.60
2018-05-03T16:59:40.046Z,52.60
2018-05-03T17:02:07.557Z,52.40
2018-05-03T17:04:35.277Z,52.90
2018-05-03T17:07:02.824Z,53.20
2018-05-03T17:09:30.349Z,53.60
2018-05-03T17:11:57.823Z,54.00
2018-05-03T17:14:25.390Z,55.10
2018-05-03T17:16:52.887Z,56.50
2018-05-03T17:19:20.400Z,57.70
2018-05-03T17:21:47.870Z,58.60
2018-05-03T17:24:15.377Z,58.90
2018-05-03T17:26:42.872Z,59.00
2018-05-03T17:29:10.394Z,59.60
2018-05-03T17:31:37.883Z,59.40
2018-05-03T17:34:05.354Z,60.20
2018-05-03T17:36:32.816Z,59.80
2018-05-03T17:39:00.334Z,60.40
2018-05-03T17:41:27.834Z,60.30
2018-05-03T17:43:55.335Z,61.20
2018-05-03T17:46:24.351Z,62.00
2018-05-03T17:48:52.610Z,62.40
2018-05-03T17:51:20.148Z,62.20
2018-05-03T17:53:47.599Z,62.00
2018-05-03T17:56:15.681Z,62.40
2018-05-03T17:58:43.184Z,62.70
2018-05-03T18:01:10.675Z,62.40
2018-05-03T18:03:38.214Z,61.00
2018-05-03T18:06:05.674Z,62.40
2018-05-03T18:08:33.219Z,61.50
2018-05-03T18:11:00.654Z,62.80
2018-05-03T18:13:28.903Z,64.00
2018-05-03T18:15:56.396Z,63.90
2018-05-03T18:18:24.646Z,65.00
2018-05-03T18:20:52.174Z,64.90
2018-05-03T18:23:19.661Z,64.20
2018-05-03T18:25:47.145Z,65.00
2018-05-03T18:28:14.789Z,65.40
2018-05-03T18:30:42.237Z,65.60
2018-05-03T18:33:09.737Z,65.40
2018-05-03T18:35:37.218Z,65.90
2018-05-03T18:38:04.800Z,66.80
2018-05-03T18:40:32.255Z,67.00
2018-05-03T18:42:59.782Z,67.40
2018-05-03T18:45:27.262Z,67.30
2018-05-03T18:47:54.749Z,68.00
2018-05-03T18:50:22.271Z,68.10
2018-05-03T18:52:49.774Z,69.20
2018-05-03T18:55:17.264Z,69.10
2018-05-03T18:57:44.780Z,68.50
2018-05-03T19:00:12.286Z,69.40
2018-05-03T19:02:39.767Z,69.40
2018-05-03T19:05:07.247Z,69.00
2018-05-03T19:07:35.603Z,69.50
2018-05-03T19:10:03.037Z,70.30
2018-05-03T19:12:30.523Z,69.50
2018-05-03T19:14:57.995Z,70.60
2018-05-03T19:17:25.516Z,70.10
2018-05-03T19:19:53.001Z,70.00
2018-05-03T19:22:20.504Z,70.10
2018-05-03T19:24:49.246Z,69.90
2018-05-03T19:27:16.741Z,69.70
2018-05-03T19:29:44.255Z,70.20
2018-05-03T19:32:12.483Z,70.00
2018-05-03T19:34:39.979Z,69.50
2018-05-03T19:37:07.478Z,69.60
2018-05-03T19:39:34.936Z,69.50
2018-05-03T19:42:03.118Z,68.70
2018-05-03T19:44:38.393Z,70.40
2018-05-03T19:47:05.899Z,69.30
2018-05-03T19:49:35.492Z,70.30
2018-05-03T19:52:04.013Z,69.90
2018-05-03T19:54:31.654Z,70.10
2018-05-03T19:57:00.303Z,67.90
2018-05-03T19:59:28.458Z,68.00
2018-05-03T20:02:01.185Z,69.20
2018-05-03T20:04:29.523Z,68.40
2018-05-03T20:06:57.240Z,67.60
2018-05-03T20:09:24.730Z,67.90
2018-05-03T20:11:52.240Z,69.90
2018-05-03T20:14:19.739Z,70.40
2018-05-03T20:16:47.222Z,71.10
2018-05-03T20:19:14.706Z,70.70
2018-05-03T20:21:42.258Z,71.10
2018-05-03T20:24:09.763Z,71.40
2018-05-03T20:26:38.022Z,71.30
2018-05-03T20:29:06.300Z,71.40
2018-05-03T20:31:34.544Z,71.50
2018-05-03T20:34:02.095Z,71.40
2018-05-03T20:36:29.522Z,71.90
2018-05-03T20:38:56.997Z,72.20
2018-05-03T20:41:24.496Z,73.70
2018-05-03T20:43:51.964Z,73.50
2018-05-03T20:46:19.444Z,74.20
2018-05-03T20:48:46.954Z,73.60
2018-05-03T20:51:14.437Z,73.60
2018-05-03T20:53:42.705Z,73.60
2018-05-03T20:56:11.201Z,73.90
2018-05-03T20:58:38.684Z,73.70
2018-05-03T21:01:06.171Z,73.80
2018-05-03T21:03:33.655Z,74.10
2018-05-03T21:06:01.138Z,74.40
2018-05-03T21:08:28.600Z,74.00
2018-05-03T21:10:56.084Z,74.40
2018-05-03T21:13:23.572Z,75.10
2018-05-03T21:15:51.842Z,75.10
2018-05-03T21:18:19.349Z,75.10
2018-05-03T21:20:46.839Z,75.10
2018-05-03T21:23:15.097Z,75.40
2018-05-03T21:25:42.683Z,75.70
2018-05-03T21:28:10.148Z,75.60
2018-05-03T21:30:37.654Z,75.90
2018-05-03T21:33:05.117Z,76.20
2018-05-03T21:35:32.586Z,76.30
2018-05-03T21:38:00.082Z,76.40
2018-05-03T21:40:27.551Z,76.50
2018-05-03T21:42:55.037Z,76.70
2018-05-03T21:45:22.521Z,76.70
2018-05-03T21:47:50.751Z,77.50
2018-05-03T21:50:19.000Z,77.70
2018-05-03T21:52:46.472Z,77.60
2018-05-03T21:55:13.948Z,77.60
2018-05-03T21:57:42.206Z,78.20
2018-05-03T22:00:09.713Z,78.00
2018-05-03T22:02:37.190Z,78.90
2018-05-03T22:05:04.840Z,78.30
2018-05-03T22:07:32.347Z,78.20
2018-05-03T22:10:00.372Z,79.10
2018-05-03T22:12:27.819Z,79.10
2018-05-03T22:14:55.335Z,79.50
2018-05-03T22:17:22.820Z,79.70
2018-05-03T22:19:50.304Z,80.00
2018-05-03T22:22:17.791Z,80.20
2018-05-03T22:24:45.261Z,80.30
2018-05-03T22:27:12.765Z,80.70
2018-05-03T22:29:40.252Z,81.30
2018-05-03T22:32:07.844Z,81.00
2018-05-03T22:34:36.541Z,81.30
2018-05-03T22:37:04.777Z,81.40
2018-05-03T22:39:32.292Z,81.40
2018-05-03T22:41:59.801Z,81.20
2018-05-03T22:44:27.276Z,81.80
2018-05-03T22:46:54.756Z,81.90
2018-05-03T22:49:22.229Z,82.00
2018-05-03T22:51:49.750Z,82.40
2018-05-03T22:54:18.040Z,82.40
2018-05-03T22:56:46.311Z,83.20
2018-05-03T22:59:14.620Z,83.50
2018-05-03T23:01:42.092Z,83.40
2018-05-03T23:04:09.594Z,83.80
2018-05-03T23:06:37.066Z,84.10
2018-05-03T23:09:04.575Z,84.40
2018-05-03T23:11:32.075Z,84.30
2018-05-03T23:14:00.320Z,84.80
2018-05-03T23:16:27.801Z,84.70
2018-05-03T23:18:56.056Z,85.20
2018-05-03T23:21:23.642Z,85.00
2018-05-03T23:23:51.123Z,85.20
2018-05-03T23:26:18.709Z,85.50
2018-05-03T23:28:46.973Z,86.10
2018-05-03T23:31:14.463Z,85.80
2018-05-03T23:33:41.989Z,85.90
2018-05-03T23:36:09.470Z,86.10
2018-05-03T23:38:36.950Z,86.30
2018-05-03T23:41:04.447Z,86.70
2018-05-03T23:43:31.953Z,87.40
2018-05-03T23:45:59.437Z,87.00
2018-05-03T23:48:26.895Z,86.80
2018-05-03T23:50:54.381Z,87.10
2018-05-03T23:53:21.901Z,87.50
2018-05-03T23:55:49.394Z,87.40
2018-05-03T23:58:16.879Z,88.00
